createdAt,value
2022-11-22T00:00:09.593Z,37.10
2022-11-22T00:01:30.309Z,45.60
2022-11-22T00:02:51.157Z,33.95
2022-11-22T00:04:11.837Z,42.22
2022-11-22T00:05:32.614Z,34.47
2022-11-22T00:06:53.315Z,31.20
2022-11-22T00:08:15.043Z,38.28
2022-11-22T00:09:35.788Z,31.73
2022-11-22T00:10:56.495Z,38.05
2022-11-22T00:12:17.280Z,39.13
2022-11-22T00:13:37.892Z,44.87
2022-11-22T00:14:58.545Z,34.40
2022-11-22T00:16:19.066Z,33.80
2022-11-22T00:17:39.897Z,34.17
2022-11-22T00:19:00.340Z,30.35
2022-11-22T00:20:21.521Z,32.50
2022-11-22T00:21:41.909Z,39.55
2022-11-22T00:23:02.296Z,39.60
2022-11-22T00:24:23.883Z,40.03
2022-11-22T00:25:45.516Z,25.10
2022-11-22T00:28:26.444Z,33.28
2022-11-22T00:29:47.011Z,46.60
2022-11-22T00:31:07.383Z,30.50
2022-11-22T00:32:27.799Z,35.22
2022-11-22T00:33:48.524Z,34.67
2022-11-22T00:35:10.155Z,36.70
2022-11-22T00:36:30.539Z,27.55
2022-11-22T00:37:50.855Z,29.17
2022-11-22T00:39:11.559Z,34.92
2022-11-22T00:40:33.617Z,30.98
2022-11-22T00:41:54.024Z,41.22
2022-11-22T00:43:14.647Z,36.67
2022-11-22T00:44:35.447Z,35.25
2022-11-22T00:45:55.676Z,30.17
2022-11-22T00:47:16.010Z,34.50
2022-11-22T00:48:36.551Z,38.78
2022-11-22T00:49:57.220Z,29.95
2022-11-22T00:51:17.601Z,28.00
2022-11-22T00:52:38.409Z,34.72
2022-11-22T00:53:59.009Z,34.45
2022-11-22T00:55:19.652Z,30.13
2022-11-22T00:56:41.477Z,30.83
2022-11-22T00:58:01.969Z,32.08
2022-11-22T00:59:22.194Z,24.33
2022-11-22T01:00:42.819Z,33.20
2022-11-22T01:02:03.409Z,36.13
2022-11-22T01:03:23.716Z,30.00
2022-11-22T01:04:44.391Z,32.78
2022-11-22T01:06:05.265Z,30.30
2022-11-22T01:07:25.751Z,32.87
2022-11-22T01:08:46.534Z,34.33
2022-11-22T01:10:07.731Z,37.90
2022-11-22T01:11:28.098Z,34.42
2022-11-22T01:12:49.821Z,27.42
2022-11-22T01:14:10.065Z,36.47
2022-11-22T01:15:31.501Z,28.40
2022-11-22T01:16:52.120Z,28.85
2022-11-22T01:18:12.306Z,42.45
2022-11-22T01:19:33.071Z,22.15
2022-11-22T01:20:54.032Z,31.42
2022-11-22T01:22:14.908Z,33.70
2022-11-22T01:23:35.597Z,27.35
2022-11-22T01:24:56.056Z,37.00
2022-11-22T01:26:16.632Z,31.00
2022-11-22T01:27:37.058Z,29.33
2022-11-22T01:28:59.099Z,30.58
2022-11-22T01:30:20.058Z,23.45
2022-11-22T01:31:40.567Z,27.02
2022-11-22T01:33:01.208Z,41.00
2022-11-22T01:34:21.590Z,36.78
2022-11-22T01:35:42.754Z,38.13
2022-11-22T01:37:03.090Z,33.55
2022-11-22T01:38:23.682Z,38.85
2022-11-22T01:39:44.424Z,30.17
2022-11-22T01:41:05.044Z,25.58
2022-11-22T01:42:41.977Z,28.10
2022-11-22T01:45:41.642Z,27.77
2022-11-22T01:47:05.364Z,28.05
2022-11-22T01:48:30.946Z,24.05
2022-11-22T01:49:54.110Z,24.63
2022-11-22T01:51:20.846Z,32.88
2022-11-22T01:52:41.281Z,29.33
2022-11-22T01:54:05.975Z,33.03
2022-11-22T01:55:26.582Z,27.45
2022-11-22T01:56:49.712Z,27.65
2022-11-22T01:58:10.749Z,28.10
2022-11-22T01:59:33.725Z,30.92
2022-11-22T02:00:56.422Z,36.72
2022-11-22T02:02:17.166Z,33.75
2022-11-22T02:03:40.000Z,36.97
2022-11-22T02:05:02.803Z,33.13
2022-11-22T02:06:23.623Z,41.10
2022-11-22T02:07:49.376Z,36.50
2022-11-22T02:09:12.413Z,26.30
2022-11-22T02:10:36.226Z,41.88
2022-11-22T02:12:00.350Z,38.05
2022-11-22T02:15:01.515Z,42.53
2022-11-22T02:16:23.414Z,27.45
2022-11-22T02:17:43.710Z,63.00
2022-11-22T02:19:05.270Z,30.17
2022-11-22T02:20:25.604Z,44.92
2022-11-22T02:21:48.144Z,28.20
2022-11-22T02:23:14.056Z,35.55
2022-11-22T02:24:40.605Z,30.90
2022-11-22T02:26:02.890Z,34.47
2022-11-22T02:27:23.829Z,32.65
2022-11-22T02:28:44.672Z,43.47
2022-11-22T02:30:05.988Z,35.27
2022-11-22T02:31:38.558Z,31.15
2022-11-22T02:32:58.905Z,34.17
2022-11-22T02:34:19.154Z,35.35
2022-11-22T02:35:40.039Z,32.90
2022-11-22T02:37:00.584Z,27.00
2022-11-22T02:38:22.975Z,28.77
2022-11-22T02:39:44.606Z,37.10
2022-11-22T02:41:08.690Z,28.63
2022-11-22T02:42:30.753Z,36.63
2022-11-22T02:43:51.184Z,33.28
2022-11-22T02:45:11.885Z,27.25
2022-11-22T02:46:32.702Z,30.23
2022-11-22T02:47:53.379Z,33.10
2022-11-22T02:49:16.636Z,29.42
2022-11-22T02:50:37.410Z,33.50
2022-11-22T02:51:57.815Z,31.08
2022-11-22T02:53:18.326Z,27.52
2022-11-22T02:54:38.861Z,29.95
2022-11-22T02:56:01.769Z,34.38
2022-11-22T02:57:23.920Z,34.60
2022-11-22T02:58:44.705Z,29.63
2022-11-22T03:00:06.538Z,40.23
2022-11-22T03:01:27.301Z,27.48
2022-11-22T03:02:47.830Z,35.03
2022-11-22T03:04:11.561Z,28.58
2022-11-22T03:05:32.795Z,31.25
2022-11-22T03:06:54.427Z,26.88
2022-11-22T03:08:15.178Z,23.35
2022-11-22T03:09:35.909Z,41.63
2022-11-22T03:10:57.409Z,28.75
2022-11-22T03:12:17.867Z,33.35
2022-11-22T03:13:39.636Z,27.40
2022-11-22T03:15:00.292Z,29.25
2022-11-22T03:16:20.604Z,32.00
2022-11-22T03:17:41.275Z,28.02
2022-11-22T03:19:02.098Z,23.52
2022-11-22T03:20:22.469Z,28.05
2022-11-22T03:21:43.490Z,29.50
2022-11-22T03:23:03.938Z,22.60
2022-11-22T03:24:24.200Z,26.05
2022-11-22T03:25:45.042Z,29.52
2022-11-22T03:27:05.471Z,30.80
2022-11-22T03:28:27.015Z,37.90
2022-11-22T03:29:48.975Z,33.08
2022-11-22T03:31:09.591Z,22.95
2022-11-22T03:32:30.066Z,31.47
2022-11-22T03:33:51.050Z,26.80
2022-11-22T03:35:11.519Z,27.95
2022-11-22T03:36:32.240Z,33.22
2022-11-22T03:37:52.748Z,17.25
2022-11-22T03:39:13.524Z,17.83
2022-11-22T03:40:34.603Z,28.92
2022-11-22T03:41:55.418Z,22.02
2022-11-22T03:43:16.092Z,27.65
2022-11-22T03:44:36.831Z,32.30
2022-11-22T03:45:58.460Z,28.80
2022-11-22T03:47:19.045Z,18.27
2022-11-22T03:48:39.837Z,25.13
2022-11-22T03:50:00.643Z,23.75
2022-11-22T03:51:21.362Z,25.83
2022-11-22T03:52:41.958Z,27.48
2022-11-22T03:54:02.578Z,31.45
2022-11-22T03:55:23.100Z,28.45
2022-11-22T03:56:43.859Z,26.75
2022-11-22T03:58:04.540Z,23.95
2022-11-22T03:59:25.122Z,27.55
2022-11-22T04:00:45.848Z,24.03
2022-11-22T04:02:08.036Z,27.60
2022-11-22T04:03:28.758Z,24.63
2022-11-22T04:04:49.311Z,24.23
2022-11-22T04:06:12.916Z,20.67
2022-11-22T04:07:33.493Z,22.08
2022-11-22T04:08:54.230Z,16.92
2022-11-22T04:10:17.790Z,19.80
2022-11-22T04:11:41.312Z,30.00
2022-11-22T04:13:02.017Z,23.48
2022-11-22T04:14:22.635Z,23.23
2022-11-22T04:15:43.339Z,27.08
2022-11-22T04:17:03.918Z,26.67
2022-11-22T04:18:25.599Z,19.02
2022-11-22T04:19:46.249Z,18.40
2022-11-22T04:21:06.758Z,18.58
2022-11-22T04:22:27.297Z,26.52
2022-11-22T04:23:47.953Z,31.98
2022-11-22T04:25:09.086Z,28.98
2022-11-22T04:26:29.796Z,22.50
2022-11-22T04:27:50.337Z,21.92
2022-11-22T04:29:10.892Z,17.67
2022-11-22T04:30:31.269Z,17.92
2022-11-22T04:31:52.168Z,28.37
2022-11-22T04:33:13.096Z,20.98
2022-11-22T04:34:35.543Z,26.63
2022-11-22T04:35:56.202Z,25.77
2022-11-22T04:37:16.997Z,27.65
2022-11-22T04:38:37.348Z,21.20
2022-11-22T04:39:58.128Z,21.00
2022-11-22T04:41:18.794Z,23.65
2022-11-22T04:42:39.470Z,20.38
2022-11-22T04:43:59.968Z,27.27
2022-11-22T04:45:20.591Z,28.13
2022-11-22T04:46:41.345Z,19.27
2022-11-22T04:48:01.783Z,25.63
2022-11-22T04:49:22.523Z,24.10
2022-11-22T04:50:45.216Z,27.52
2022-11-22T04:52:05.946Z,18.90
2022-11-22T04:53:27.076Z,22.98
2022-11-22T04:54:47.510Z,26.27
2022-11-22T04:56:07.872Z,17.55
2022-11-22T04:57:28.208Z,22.73
2022-11-22T04:58:48.986Z,29.02
2022-11-22T05:00:10.741Z,26.63
2022-11-22T05:01:31.451Z,28.60
2022-11-22T05:02:52.000Z,21.58
2022-11-22T05:04:12.832Z,22.25
2022-11-22T05:05:37.033Z,19.80
2022-11-22T05:06:58.862Z,18.65
2022-11-22T05:08:19.796Z,17.67
2022-11-22T05:09:40.497Z,21.17
2022-11-22T05:11:00.807Z,24.35
2022-11-22T05:12:21.385Z,22.48
2022-11-22T05:13:44.965Z,23.85
2022-11-22T05:15:06.509Z,24.75
2022-11-22T05:16:27.380Z,15.48
2022-11-22T05:17:48.002Z,20.63
2022-11-22T05:19:08.365Z,22.42
2022-11-22T05:20:28.856Z,21.85
2022-11-22T05:21:49.435Z,25.23
2022-11-22T05:23:11.471Z,18.70
2022-11-22T05:24:32.010Z,20.50
2022-11-22T05:25:52.807Z,18.92
2022-11-22T05:27:13.429Z,19.30
2022-11-22T05:28:35.436Z,18.02
2022-11-22T05:29:56.261Z,23.13
2022-11-22T05:31:18.331Z,16.90
2022-11-22T05:32:39.300Z,22.90
2022-11-22T05:34:00.173Z,18.90
2022-11-22T05:35:20.798Z,19.73
2022-11-22T05:36:41.558Z,12.13
2022-11-22T05:38:02.171Z,14.83
2022-11-22T05:39:24.212Z,19.15
2022-11-22T05:40:44.730Z,21.80
2022-11-22T05:42:05.287Z,19.50
2022-11-22T05:43:25.465Z,17.25
2022-11-22T05:44:45.952Z,19.70
2022-11-22T05:46:07.921Z,13.35
2022-11-22T05:47:28.439Z,21.40
2022-11-22T05:48:49.089Z,17.17
2022-11-22T05:50:10.116Z,19.42
2022-11-22T05:51:34.575Z,19.90
2022-11-22T05:52:58.992Z,19.55
2022-11-22T05:54:19.826Z,23.15
2022-11-22T05:55:41.459Z,19.95
2022-11-22T05:57:02.212Z,18.92
2022-11-22T05:58:22.803Z,22.45
2022-11-22T05:59:44.477Z,14.80
2022-11-22T06:01:05.866Z,20.63
2022-11-22T06:02:26.652Z,19.42
2022-11-22T06:03:47.708Z,23.55
2022-11-22T06:05:12.130Z,27.15
2022-11-22T06:06:32.868Z,15.60
2022-11-22T06:07:53.490Z,24.13
2022-11-22T06:09:13.709Z,16.55
2022-11-22T06:10:34.317Z,20.33
2022-11-22T06:11:56.394Z,23.00
2022-11-22T06:13:17.281Z,20.95
2022-11-22T06:14:42.928Z,21.93
2022-11-22T06:16:04.600Z,20.73
2022-11-22T06:17:27.663Z,24.52
2022-11-22T06:18:48.363Z,18.38
2022-11-22T06:20:09.779Z,18.48
2022-11-22T06:21:30.721Z,18.70
2022-11-22T06:22:51.186Z,25.63
2022-11-22T06:24:11.862Z,26.55
2022-11-22T06:25:32.712Z,24.27
2022-11-22T06:26:53.581Z,19.73
2022-11-22T06:28:15.336Z,26.42
2022-11-22T06:29:35.743Z,24.95
2022-11-22T06:31:01.078Z,19.65
2022-11-22T06:32:21.820Z,22.95
2022-11-22T06:33:42.820Z,21.77
2022-11-22T06:35:03.965Z,23.00
2022-11-22T06:36:26.095Z,31.50
2022-11-22T06:37:46.895Z,22.08
2022-11-22T06:39:07.560Z,28.10
2022-11-22T06:40:28.136Z,21.55
2022-11-22T06:41:48.936Z,18.45
2022-11-22T06:43:09.699Z,22.17
2022-11-22T06:44:31.551Z,24.15
2022-11-22T06:45:58.193Z,27.23
2022-11-22T06:47:18.708Z,16.17
2022-11-22T06:48:40.291Z,16.10
2022-11-22T06:50:00.854Z,20.08
2022-11-22T06:51:23.404Z,21.15
2022-11-22T06:52:45.330Z,13.82
2022-11-22T06:54:06.214Z,25.80
2022-11-22T06:55:49.461Z,17.35
2022-11-22T06:57:07.388Z,20.30
2022-11-22T06:58:28.153Z,20.25
2022-11-22T06:59:49.979Z,24.08
2022-11-22T07:01:11.598Z,17.02
2022-11-22T07:02:35.881Z,20.58
2022-11-22T07:03:59.156Z,16.75
2022-11-22T07:05:26.415Z,16.02
2022-11-22T07:06:47.438Z,24.13
2022-11-22T07:08:13.802Z,20.10
2022-11-22T07:09:34.968Z,18.92
2022-11-22T07:11:02.258Z,13.47
2022-11-22T07:12:22.708Z,17.52
2022-11-22T07:13:46.304Z,16.77
2022-11-22T07:15:09.369Z,18.00
2022-11-22T07:16:30.052Z,22.77
2022-11-22T07:17:50.702Z,23.13
2022-11-22T07:19:11.171Z,22.27
2022-11-22T07:20:31.604Z,17.88
2022-11-22T07:21:51.851Z,26.85
2022-11-22T07:23:12.592Z,21.83
2022-11-22T07:24:33.218Z,18.33
2022-11-22T07:25:53.973Z,22.30
2022-11-22T07:27:14.439Z,21.70
2022-11-22T07:28:35.493Z,21.40
2022-11-22T07:29:55.749Z,19.63
2022-11-22T07:31:18.114Z,25.98
2022-11-22T07:32:38.810Z,27.45
2022-11-22T07:34:02.541Z,16.02
2022-11-22T07:35:23.065Z,23.45
2022-11-22T07:36:43.453Z,23.30
2022-11-22T07:38:05.606Z,17.37
2022-11-22T07:39:26.184Z,23.13
2022-11-22T07:40:47.129Z,19.70
2022-11-22T07:42:11.179Z,19.08
2022-11-22T07:43:32.442Z,12.98
2022-11-22T07:44:53.195Z,20.75
2022-11-22T07:46:21.918Z,27.38
2022-11-22T07:47:42.682Z,16.77
2022-11-22T07:49:03.587Z,22.50
2022-11-22T07:50:24.155Z,24.13
2022-11-22T07:51:44.738Z,17.63
2022-11-22T07:53:05.896Z,24.98
2022-11-22T07:54:26.635Z,20.20
2022-11-22T07:55:47.245Z,13.50
2022-11-22T07:57:08.035Z,20.88
2022-11-22T07:58:28.644Z,17.80
2022-11-22T07:59:49.268Z,26.00
2022-11-22T08:01:11.324Z,21.23
2022-11-22T08:02:33.275Z,14.95
2022-11-22T08:03:53.597Z,18.58
2022-11-22T08:05:14.261Z,20.25
2022-11-22T08:06:35.141Z,21.95
2022-11-22T08:07:55.561Z,20.30
2022-11-22T08:09:16.140Z,17.30
2022-11-22T08:10:36.815Z,15.25
2022-11-22T08:11:57.185Z,16.67
2022-11-22T08:13:17.901Z,15.02
2022-11-22T08:14:38.616Z,15.40
2022-11-22T08:16:05.663Z,17.08
2022-11-22T08:17:26.744Z,15.60
2022-11-22T08:18:49.446Z,19.67
2022-11-22T08:20:10.704Z,18.00
2022-11-22T08:21:31.125Z,13.95
2022-11-22T08:22:51.718Z,16.25
2022-11-22T08:24:12.016Z,17.98
2022-11-22T08:25:32.914Z,16.30
2022-11-22T08:26:53.409Z,21.75
2022-11-22T08:28:13.891Z,18.48
2022-11-22T08:29:34.547Z,16.65
2022-11-22T08:30:59.912Z,14.38
2022-11-22T08:32:20.334Z,20.63
2022-11-22T08:33:41.284Z,18.23
2022-11-22T08:35:03.131Z,18.60
2022-11-22T08:36:23.937Z,16.83
2022-11-22T08:37:44.738Z,16.38
2022-11-22T08:39:08.419Z,22.42
2022-11-22T08:40:29.525Z,14.65
2022-11-22T08:41:49.994Z,16.27
2022-11-22T08:43:14.149Z,16.60
2022-11-22T08:44:34.654Z,18.58
2022-11-22T08:45:57.561Z,18.05
2022-11-22T08:47:18.515Z,17.17
2022-11-22T08:48:39.279Z,25.13
2022-11-22T08:50:00.016Z,19.10
2022-11-22T08:51:25.121Z,23.33
2022-11-22T08:52:48.891Z,13.75
2022-11-22T08:54:09.441Z,10.95
2022-11-22T08:55:30.177Z,19.33
2022-11-22T08:56:56.172Z,18.83
2022-11-22T08:58:19.867Z,16.13
2022-11-22T08:59:40.627Z,17.35
2022-11-22T09:01:04.512Z,14.93
2022-11-22T09:02:24.908Z,15.18
2022-11-22T09:03:45.803Z,21.73
2022-11-22T09:05:07.064Z,24.05
2022-11-22T09:09:40.048Z,19.00
2022-11-22T09:11:01.100Z,20.13
2022-11-22T09:12:22.047Z,17.35
2022-11-22T09:13:43.145Z,14.65
2022-11-22T09:15:04.183Z,19.83
2022-11-22T09:16:24.739Z,20.08
2022-11-22T09:17:45.313Z,20.67
2022-11-22T09:19:06.195Z,15.90
2022-11-22T09:20:26.751Z,17.75
2022-11-22T09:21:48.907Z,18.23
2022-11-22T09:23:09.238Z,14.40
2022-11-22T09:24:29.604Z,22.08
2022-11-22T09:25:56.963Z,15.05
2022-11-22T09:27:17.364Z,21.38
2022-11-22T09:28:38.236Z,17.60
2022-11-22T09:29:58.622Z,25.48
2022-11-22T09:31:21.166Z,24.80
2022-11-22T09:32:43.472Z,17.33
2022-11-22T09:34:04.048Z,26.75
2022-11-22T09:35:24.611Z,26.67
2022-11-22T09:36:45.040Z,20.00
2022-11-22T09:38:06.829Z,13.60
2022-11-22T09:39:27.392Z,17.48
2022-11-22T09:40:47.952Z,23.52
2022-11-22T09:42:36.982Z,23.83
2022-11-22T09:44:03.214Z,19.13
2022-11-22T09:45:52.197Z,14.10
2022-11-22T09:47:20.325Z,18.27
2022-11-22T09:48:51.388Z,19.77
2022-11-22T09:50:20.836Z,20.63
2022-11-22T09:51:46.286Z,20.83
2022-11-22T09:53:14.385Z,20.50
2022-11-22T09:54:40.601Z,14.05
2022-11-22T09:56:04.024Z,15.00
2022-11-22T09:57:27.413Z,24.38
2022-11-22T09:58:52.212Z,16.65
2022-11-22T10:00:19.656Z,12.88
2022-11-22T10:01:43.959Z,14.52
2022-11-22T10:03:09.441Z,20.13
2022-11-22T10:04:35.503Z,19.58
2022-11-22T10:05:58.399Z,12.68
2022-11-22T10:07:22.901Z,18.95
2022-11-22T10:08:58.855Z,19.15
2022-11-22T10:10:24.384Z,16.27
2022-11-22T10:11:47.080Z,14.80
2022-11-22T10:13:13.923Z,17.40
2022-11-22T10:14:39.244Z,19.10
2022-11-22T10:16:03.883Z,13.20
2022-11-22T10:17:29.910Z,15.32
2022-11-22T10:18:56.855Z,15.95
2022-11-22T10:20:17.775Z,24.88
2022-11-22T10:21:38.343Z,17.77
2022-11-22T10:22:59.291Z,16.80
2022-11-22T10:24:21.334Z,12.35
2022-11-22T10:25:45.040Z,12.63
2022-11-22T10:27:06.516Z,15.93
2022-11-22T10:28:32.904Z,20.63
2022-11-22T10:29:57.627Z,21.23
2022-11-22T10:31:20.777Z,12.32
2022-11-22T10:32:45.996Z,15.90
2022-11-22T10:34:15.194Z,16.42
2022-11-22T10:35:50.420Z,11.43
2022-11-22T10:37:16.204Z,15.05
2022-11-22T10:38:55.346Z,14.63
2022-11-22T10:40:20.622Z,18.65
2022-11-22T10:41:54.387Z,15.73
2022-11-22T10:43:27.366Z,15.95
2022-11-22T10:44:53.963Z,19.83
2022-11-22T10:46:20.245Z,17.58
2022-11-22T10:47:49.541Z,14.27
2022-11-22T10:49:15.729Z,10.43
2022-11-22T10:50:46.685Z,11.23
2022-11-22T10:52:19.625Z,9.70
2022-11-22T10:53:48.938Z,12.32
2022-11-22T10:55:22.820Z,19.92
2022-11-22T10:56:48.547Z,12.73
2022-11-22T10:58:15.771Z,13.95
2022-11-22T10:59:47.949Z,21.58
2022-11-22T11:01:21.763Z,8.15
2022-11-22T11:02:55.390Z,12.05
2022-11-22T11:04:17.663Z,13.85
2022-11-22T11:07:24.836Z,12.30
2022-11-22T11:09:36.236Z,12.32
2022-11-22T11:10:37.808Z,16.27
2022-11-22T11:11:59.282Z,19.67
2022-11-22T11:13:23.602Z,13.85
2022-11-22T11:14:46.336Z,10.00
2022-11-22T11:16:09.906Z,15.60
2022-11-22T11:17:33.383Z,12.57
2022-11-22T11:18:57.004Z,12.50
2022-11-22T11:20:22.965Z,15.60
2022-11-22T11:21:48.721Z,15.90
2022-11-22T11:23:17.171Z,15.93
2022-11-22T11:24:41.405Z,13.90
2022-11-22T11:26:20.776Z,13.50
2022-11-22T11:27:42.621Z,15.30
2022-11-22T11:29:37.376Z,15.82
2022-11-22T11:31:02.161Z,10.73
2022-11-22T11:32:23.128Z,18.17
2022-11-22T11:33:44.166Z,11.10
2022-11-22T11:35:06.938Z,14.48
2022-11-22T11:36:27.667Z,12.98
2022-11-22T11:37:48.245Z,19.58
2022-11-22T11:39:19.710Z,16.25
2022-11-22T11:40:40.012Z,12.68
2022-11-22T11:42:04.305Z,12.70
2022-11-22T11:43:25.358Z,16.40
2022-11-22T11:44:45.759Z,17.38
2022-11-22T11:46:16.122Z,15.98
2022-11-22T11:47:39.667Z,16.25
2022-11-22T11:49:09.785Z,16.25
2022-11-22T11:50:30.349Z,11.57
2022-11-22T11:51:57.099Z,13.43
2022-11-22T11:53:25.057Z,13.27
2022-11-22T11:54:46.712Z,15.77
2022-11-22T11:56:40.178Z,15.50
2022-11-22T11:58:19.043Z,14.35
2022-11-22T11:59:43.987Z,12.05
2022-11-22T12:01:10.736Z,18.13
2022-11-22T12:02:35.993Z,21.08
2022-11-22T12:03:58.604Z,17.05
2022-11-22T12:05:26.967Z,13.45
2022-11-22T12:06:56.601Z,14.55
2022-11-22T12:08:29.184Z,16.95
2022-11-22T12:09:51.234Z,12.30
2022-11-22T12:11:16.213Z,12.23
2022-11-22T12:12:42.985Z,14.68
2022-11-22T12:14:19.491Z,12.52
2022-11-22T12:15:47.834Z,11.90
2022-11-22T12:17:12.670Z,16.52
2022-11-22T12:18:39.147Z,15.57
2022-11-22T12:20:04.257Z,11.82
2022-11-22T12:21:29.442Z,18.20
2022-11-22T12:22:59.135Z,19.80
2022-11-22T12:24:45.636Z,12.93
2022-11-22T12:26:05.428Z,9.65
2022-11-22T12:27:26.162Z,14.95
2022-11-22T12:28:47.082Z,14.07
2022-11-22T12:30:13.714Z,12.55
2022-11-22T12:31:38.476Z,9.02
2022-11-22T12:33:01.955Z,10.88
2022-11-22T12:34:25.832Z,18.48
2022-11-22T12:35:46.957Z,14.52
2022-11-22T12:37:10.808Z,21.25
2022-11-22T12:38:33.506Z,10.40
2022-11-22T12:39:55.621Z,9.93
2022-11-22T12:41:18.102Z,9.88
2022-11-22T12:42:43.190Z,14.98
2022-11-22T12:44:13.738Z,7.50
2022-11-22T12:45:39.495Z,15.13
2022-11-22T12:47:06.486Z,14.50
2022-11-22T12:48:32.572Z,14.68
2022-11-22T12:49:54.745Z,10.40
2022-11-22T12:51:21.241Z,13.25
2022-11-22T12:52:45.377Z,10.43
2022-11-22T12:54:12.474Z,12.35
2022-11-22T12:55:45.531Z,9.00
2022-11-22T12:57:10.854Z,15.95
2022-11-22T12:58:37.202Z,10.80
2022-11-22T13:00:04.715Z,15.82
2022-11-22T13:01:30.379Z,10.05
2022-11-22T13:03:00.123Z,9.88
2022-11-22T13:04:26.170Z,11.68
2022-11-22T13:05:48.741Z,8.65
2022-11-22T13:07:15.585Z,13.25
2022-11-22T13:08:40.417Z,10.55
2022-11-22T13:10:05.491Z,13.63
2022-11-22T13:11:29.641Z,14.35
2022-11-22T13:12:51.336Z,11.52
2022-11-22T13:14:20.595Z,12.20
2022-11-22T13:15:42.079Z,9.77
2022-11-22T13:17:07.846Z,8.23
2022-11-22T13:18:32.139Z,10.75
2022-11-22T13:19:55.259Z,8.90
2022-11-22T13:21:22.289Z,17.05
2022-11-22T13:22:49.985Z,13.35
2022-11-22T13:24:20.759Z,9.70
2022-11-22T13:25:48.738Z,11.38
2022-11-22T13:27:15.030Z,10.30
2022-11-22T13:28:37.928Z,9.18
2022-11-22T13:30:00.164Z,10.65
2022-11-22T13:31:20.464Z,7.55
2022-11-22T13:32:42.270Z,10.20
2022-11-22T13:34:02.716Z,8.82
2022-11-22T13:35:27.977Z,7.90
2022-11-22T13:36:49.451Z,8.55
2022-11-22T13:38:15.186Z,10.57
2022-11-22T13:39:41.872Z,8.82
2022-11-22T13:41:21.596Z,9.20
2022-11-22T13:42:42.836Z,11.43
2022-11-22T13:44:18.255Z,14.60
2022-11-22T13:45:46.698Z,6.68
2022-11-22T13:47:38.402Z,8.02
2022-11-22T13:49:14.154Z,8.13
2022-11-22T13:51:01.392Z,6.35
2022-11-22T13:52:49.855Z,9.55
2022-11-22T13:54:43.644Z,11.05
2022-11-22T13:56:41.316Z,11.85
2022-11-22T13:58:38.461Z,10.15
2022-11-22T14:00:40.732Z,8.77
2022-11-22T14:02:03.281Z,7.68
2022-11-22T14:03:34.247Z,10.68
2022-11-22T14:04:56.922Z,8.23
2022-11-22T14:06:28.704Z,6.15
2022-11-22T14:07:50.483Z,8.70
2022-11-22T14:09:30.490Z,11.25
2022-11-22T14:11:17.981Z,7.97
2022-11-22T14:13:12.674Z,9.68
2022-11-22T14:14:37.576Z,11.80
2022-11-22T14:16:05.658Z,10.77
2022-11-22T14:17:37.031Z,9.55
2022-11-22T14:19:09.244Z,13.20
2022-11-22T14:20:41.398Z,8.70
2022-11-22T14:22:20.536Z,6.82
2022-11-22T14:23:49.746Z,10.85
2022-11-22T14:25:30.377Z,8.38
2022-11-22T14:26:56.857Z,8.07
2022-11-22T14:28:31.491Z,9.38
2022-11-22T14:30:04.510Z,9.35
2022-11-22T14:31:27.452Z,5.20
2022-11-22T14:32:54.004Z,13.57
2022-11-22T14:34:17.034Z,9.77
2022-11-22T14:35:39.660Z,7.03
2022-11-22T14:37:33.141Z,8.90
2022-11-22T14:38:53.873Z,10.55
2022-11-22T14:40:31.418Z,8.70
2022-11-22T14:41:52.068Z,6.28
2022-11-22T14:43:34.042Z,5.63
2022-11-22T14:46:51.105Z,5.32
2022-11-22T14:48:04.469Z,6.45
2022-11-22T14:49:38.419Z,8.13
2022-11-22T14:51:06.545Z,7.95
2022-11-22T14:52:29.941Z,9.43
2022-11-22T14:53:53.283Z,7.60
2022-11-22T14:55:16.379Z,5.70
2022-11-22T14:56:37.115Z,7.20
2022-11-22T15:00:58.569Z,10.50
2022-11-22T15:02:51.596Z,8.55
2022-11-22T15:09:13.453Z,6.07
2022-11-22T15:09:16.117Z,12.13
2022-11-22T15:09:23.697Z,12.48
2022-11-22T15:10:29.316Z,6.22
2022-11-22T15:12:01.695Z,8.70
2022-11-22T15:13:33.356Z,6.45
2022-11-22T15:58:23.658Z,6.10
2022-11-22T15:59:45.586Z,6.70
2022-11-22T16:01:19.136Z,7.35
2022-11-22T16:02:48.243Z,9.13
2022-11-22T16:04:19.427Z,7.10
2022-11-22T16:06:06.253Z,5.72
2022-11-22T16:07:26.082Z,8.90
2022-11-22T16:08:56.793Z,9.77
2022-11-22T16:10:20.018Z,6.23
2022-11-22T16:11:40.283Z,10.38
2022-11-22T16:13:23.227Z,7.10
2022-11-22T16:14:46.435Z,8.00
2022-11-22T16:16:18.160Z,9.90
2022-11-22T16:17:48.490Z,9.70
2022-11-22T16:19:20.622Z,12.30
2022-11-22T16:20:41.812Z,10.65
2022-11-22T16:22:02.653Z,13.57
2022-11-22T16:23:27.211Z,10.52
2022-11-22T16:24:48.841Z,9.00
2022-11-22T16:26:19.105Z,9.45
2022-11-22T16:27:48.471Z,9.00
2022-11-22T16:29:23.400Z,10.20
2022-11-22T16:30:44.134Z,9.95
2022-11-22T16:32:09.455Z,9.27
2022-11-22T16:33:30.131Z,12.85
2022-11-22T16:35:03.240Z,11.68
2022-11-22T16:36:29.777Z,11.65
2022-11-22T16:37:50.206Z,8.13
2022-11-22T16:39:10.805Z,10.35
2022-11-22T16:40:41.118Z,8.10
2022-11-22T16:42:01.351Z,8.10
2022-11-22T16:43:23.404Z,12.07
2022-11-22T16:46:03.919Z,15.07
2022-11-22T16:47:24.389Z,10.35
2022-11-22T16:48:44.869Z,11.38
2022-11-22T16:50:06.177Z,11.63
2022-11-22T16:51:27.805Z,11.98
2022-11-22T16:52:48.518Z,10.98
2022-11-22T16:54:12.998Z,9.25
2022-11-22T16:55:34.908Z,8.85
2022-11-22T16:56:55.564Z,13.00
2022-11-22T16:58:18.008Z,10.77
2022-11-22T16:59:39.020Z,11.95
2022-11-22T17:00:59.752Z,14.53
2022-11-22T17:02:20.275Z,12.53
2022-11-22T17:03:40.914Z,13.13
2022-11-22T17:05:01.597Z,15.80
2022-11-22T17:06:23.223Z,10.90
2022-11-22T17:07:43.990Z,10.27
2022-11-22T17:09:04.533Z,13.50
2022-11-22T17:10:25.177Z,10.37
2022-11-22T17:11:47.474Z,11.48
2022-11-22T17:13:13.275Z,11.43
2022-11-22T17:14:34.229Z,13.48
2022-11-22T17:15:56.044Z,12.90
2022-11-22T17:17:16.749Z,10.40
2022-11-22T17:18:37.322Z,9.82
2022-11-22T17:19:58.039Z,11.57
2022-11-22T17:21:24.121Z,14.25
2022-11-22T17:22:44.777Z,13.48
2022-11-22T17:24:06.676Z,11.27
2022-11-22T17:25:26.964Z,13.10
2022-11-22T17:26:48.859Z,13.80
2022-11-22T17:28:09.431Z,8.98
2022-11-22T17:31:12.876Z,7.82
2022-11-22T17:32:33.623Z,15.75
2022-11-22T17:33:56.418Z,10.70
2022-11-22T17:35:17.231Z,10.90
2022-11-22T17:36:37.929Z,11.48
2022-11-22T17:37:58.462Z,10.07
2022-11-22T17:39:19.256Z,11.98
2022-11-22T17:40:40.072Z,11.18
2022-11-22T17:42:01.762Z,10.32
2022-11-22T17:43:22.684Z,11.32
2022-11-22T17:44:43.021Z,9.70
2022-11-22T17:46:03.697Z,19.13
2022-11-22T17:47:24.375Z,12.10
2022-11-22T17:48:50.676Z,12.90
2022-11-22T17:50:11.326Z,11.23
2022-11-22T17:51:32.259Z,14.63
2022-11-22T17:52:52.646Z,9.73
2022-11-22T17:54:13.411Z,16.92
2022-11-22T17:55:48.364Z,15.77
2022-11-22T17:57:15.492Z,17.75
2022-11-22T17:58:36.159Z,14.00
2022-11-22T17:59:56.659Z,15.18
2022-11-22T18:01:18.284Z,12.13
2022-11-22T18:03:59.591Z,14.85
2022-11-22T18:05:21.678Z,11.45
2022-11-22T18:08:03.671Z,13.52
2022-11-22T18:09:24.349Z,13.88
2022-11-22T18:10:44.974Z,12.77
2022-11-22T18:12:06.726Z,9.52
2022-11-22T18:13:30.623Z,12.48
2022-11-22T18:14:51.253Z,10.43
2022-11-22T18:16:13.416Z,11.45
2022-11-22T18:17:34.771Z,13.55
2022-11-22T18:18:57.141Z,15.07
2022-11-22T18:20:18.377Z,14.55
2022-11-22T18:21:38.783Z,12.30
2022-11-22T18:22:59.407Z,7.28
2022-11-22T18:24:21.115Z,11.88
2022-11-22T18:25:43.274Z,14.30
2022-11-22T18:27:03.792Z,12.38
2022-11-22T18:28:24.444Z,17.05
2022-11-22T18:29:46.245Z,14.05
2022-11-22T18:31:07.106Z,13.10
2022-11-22T18:32:27.905Z,12.40
2022-11-22T18:33:48.736Z,13.98
2022-11-22T18:35:09.484Z,8.75
2022-11-22T18:38:10.844Z,12.45
2022-11-22T18:39:33.342Z,14.63
2022-11-22T18:40:54.119Z,11.45
2022-11-22T18:42:15.677Z,14.40
2022-11-22T18:43:36.474Z,19.50
2022-11-22T18:44:58.439Z,15.18
2022-11-22T18:46:18.845Z,13.25
2022-11-22T18:47:39.383Z,16.00
2022-11-22T18:49:00.099Z,13.93
2022-11-22T18:50:20.646Z,14.95
2022-11-22T18:51:41.230Z,18.13
2022-11-22T18:53:01.842Z,20.30
2022-11-22T18:54:22.602Z,13.93
2022-11-22T18:55:43.311Z,14.55
2022-11-22T18:57:04.164Z,14.85
2022-11-22T18:58:24.635Z,18.65
2022-11-22T18:59:45.352Z,14.38
2022-11-22T19:01:11.180Z,15.60
2022-11-22T19:02:33.056Z,14.57
2022-11-22T19:03:54.679Z,17.27
2022-11-22T19:05:17.681Z,16.15
2022-11-22T19:06:40.417Z,15.70
2022-11-22T19:08:01.426Z,17.65